Worthing, Texas
Current Conditions -  °F | °C
As of 1:35 PM on Thursday 23 Oct 2014 (Local Time) from K66R Reporting Station
Clear Clear  
Wind Chill: 75°   Ceiling: Unl
Heat Index: 75°   Visibility: 10mi
Dew Point: 56°   Wind: 5mph
Humidity: 52%   Direction: 90°E
Pressure: 30.1"   Gusts: NA
Location:  29.3984°N, 96.8256°W
Report Text: K66R 231835Z AUTO 09004KT 10SM CLR 24/14 A3010 RMK AO2 T02400136
Loading
Personal Weather Stations






























Interactive Weather Map
Tropical Storm Tracking
New forecast layout! Learn more

10-Day Weather Forecast

Advertisements
Track Severe Weather on mobile